Time;durP1;ratioP1;P1;durP2;ratioP2;P2;SDS_P1;SDS_P2;PMS_P1;PMS_P2;Temp;Humidity;BMP_temperature;BMP_pressure;BME280_temperature;BME280_humidity;BME280_pressure;Samples;Min_cycle;Max_cycle;Signal;HPM_P1;HPM_P2
2023/05/23 00:04:06;;;;;;;37.22;24.38;;;;;;;21.37;61.48;100069.38;10376503;28;20037;-63
2023/05/23 00:09:07;;;;;;;42.92;24.92;;;;;;;21.40;61.07;100070.75;10381504;28;20046;-63
2023/05/23 00:14:09;;;;;;;32.60;22.25;;;;;;;21.38;60.98;100065.53;10381407;28;20071;-65
2023/05/23 00:19:13;;;;;;;32.25;21.90;;;;;;;21.44;60.72;100060.19;10388956;28;20045;-64
2023/05/23 00:24:17;;;;;;;35.47;22.65;;;;;;;21.50;60.55;100068.16;10383579;28;20095;-64
2023/05/23 00:29:19;;;;;;;33.75;24.48;;;;;;;21.56;60.48;100074.53;10383775;28;20041;-65
2023/05/23 00:34:20;;;;;;;34.95;23.40;;;;;;;21.61;60.53;100073.78;10386447;28;20049;-64
2023/05/23 00:39:22;;;;;;;38.00;24.63;;;;;;;21.62;60.26;100080.91;10391942;28;20038;-65
2023/05/23 00:44:23;;;;;;;30.75;24.08;;;;;;;21.61;60.75;100090.19;10383463;28;20049;-64
2023/05/23 00:49:26;;;;;;;38.30;23.08;;;;;;;21.57;60.60;100085.22;10385698;28;20447;-64
2023/05/23 00:54:32;;;;;;;35.47;21.08;;;;;;;21.44;60.74;100099.28;10382588;28;20052;-65
2023/05/23 00:59:35;;;;;;;33.05;23.50;;;;;;;21.28;61.21;100097.41;10381390;28;20053;-65
2023/05/23 01:04:37;;;;;;;31.80;22.27;;;;;;;21.33;60.89;100113.91;10384162;28;20053;-64
2023/05/23 01:09:39;;;;;;;34.83;22.95;;;;;;;21.44;60.87;100112.97;10382458;28;20049;-64
2023/05/23 01:14:47;;;;;;;32.63;22.17;;;;;;;21.42;60.64;100115.09;10383080;28;20038;-64
2023/05/23 01:20:01;;;;;;;31.48;22.70;;;;;;;21.47;60.56;100117.13;10385875;28;20057;-65
2023/05/23 01:25:21;;;;;;;27.77;21.40;;;;;;;21.36;60.42;100107.91;10381089;28;20389;-64
2023/05/23 01:30:25;;;;;;;30.77;20.98;;;;;;;21.44;60.40;100118.44;10384208;28;20037;-64
2023/05/23 01:35:27;;;;;;;33.50;22.65;;;;;;;21.42;60.53;100125.22;10379348;28;20048;-64
2023/05/23 01:40:28;;;;;;;30.38;22.25;;;;;;;21.38;60.15;100114.75;10388136;28;20941;-63
2023/05/23 01:45:30;;;;;;;32.65;24.25;;;;;;;21.30;60.63;100108.91;10380496;28;20045;-65
2023/05/23 01:50:32;;;;;;;28.48;22.00;;;;;;;21.25;60.47;100117.03;10384239;28;20064;-62
2023/05/23 01:55:34;;;;;;;31.30;22.13;;;;;;;21.19;60.46;100127.91;10380464;28;20052;-64
2023/05/23 02:00:36;;;;;;;31.80;20.50;;;;;;;21.16;61.07;100136.63;10380728;28;20481;-63
2023/05/23 02:05:37;;;;;;;32.22;22.60;;;;;;;21.12;60.89;100137.38;10380783;28;20926;-63
2023/05/23 02:10:39;;;;;;;31.92;22.35;;;;;;;20.96;61.37;100145.34;10382462;28;20076;-64
2023/05/23 02:15:40;;;;;;;23.77;19.88;;;;;;;20.74;61.62;100149.91;10381882;28;20544;-63
2023/05/23 02:20:42;;;;;;;27.52;18.73;;;;;;;20.63;61.57;100156.28;10385731;28;20064;-64
2023/05/23 02:25:44;;;;;;;24.27;19.25;;;;;;;20.59;61.46;100151.28;10385815;28;20048;-63
2023/05/23 02:30:45;;;;;;;22.63;17.02;;;;;;;20.46;61.47;100146.16;10378612;28;20045;-63
2023/05/23 02:35:48;;;;;;;21.83;15.93;;;;;;;20.39;60.90;100148.19;10380376;28;20420;-63
2023/05/23 02:40:52;;;;;;;25.60;16.08;;;;;;;20.38;60.54;100154.75;10380169;28;20057;-63
2023/05/23 02:45:53;;;;;;;20.33;16.08;;;;;;;20.38;60.53;100161.03;10374928;28;20437;-63
2023/05/23 02:50:55;;;;;;;21.30;15.45;;;;;;;20.33;60.41;100176.47;10382818;28;20191;-64
2023/05/23 02:55:56;;;;;;;15.77;12.43;;;;;;;20.13;60.31;100175.00;10379760;28;20614;-63
2023/05/23 03:00:58;;;;;;;19.02;11.48;;;;;;;20.12;60.00;100186.16;10382225;28;20045;-63
2023/05/23 03:06:02;;;;;;;17.02;12.57;;;;;;;19.88;60.30;100175.34;10379136;28;20045;-63
2023/05/23 03:11:03;;;;;;;21.30;14.10;;;;;;;19.70;60.29;100175.47;10378652;28;20046;-63
2023/05/23 03:16:05;;;;;;;16.08;12.50;;;;;;;19.68;60.01;100188.53;10380205;28;20045;-63
2023/05/23 03:21:08;;;;;;;16.15;12.43;;;;;;;19.54;60.00;100182.50;10384098;28;20057;-63
2023/05/23 03:26:10;;;;;;;15.10;10.95;;;;;;;19.46;60.03;100191.06;10376805;28;20061;-64
2023/05/23 03:31:12;;;;;;;14.43;11.40;;;;;;;19.50;59.52;100184.88;10375396;28;20455;-66
2023/05/23 03:36:13;;;;;;;15.82;11.10;;;;;;;19.42;59.56;100196.97;10374499;28;20049;-65
2023/05/23 03:41:15;;;;;;;14.77;10.48;;;;;;;19.11;60.09;100206.34;10369626;28;20165;-66
2023/05/23 03:46:17;;;;;;;13.35;9.02;;;;;;;19.09;59.79;100200.28;10390143;28;20053;-65
2023/05/23 03:51:19;;;;;;;12.85;7.80;;;;;;;18.82;60.19;100224.44;10394143;28;20075;-63
2023/05/23 03:56:21;;;;;;;10.98;8.82;;;;;;;18.86;59.93;100227.50;10386420;28;20524;-65
2023/05/23 04:01:23;;;;;;;12.15;7.95;;;;;;;18.80;59.98;100237.47;10387401;28;20603;-65
2023/05/23 04:06:26;;;;;;;13.60;9.13;;;;;;;18.85;59.68;100232.13;10385572;28;20052;-66
2023/05/23 04:11:27;;;;;;;13.90;9.85;;;;;;;18.89;59.21;100236.03;10386602;28;20485;-64
2023/05/23 04:16:31;;;;;;;15.45;9.98;;;;;;;18.66;59.39;100231.34;10384245;28;20041;-64
2023/05/23 04:21:33;;;;;;;14.55;9.93;;;;;;;18.66;59.44;100242.25;10381953;28;20540;-64
2023/05/23 04:26:35;;;;;;;13.77;9.88;;;;;;;18.67;59.34;100249.34;10381931;28;20046;-65
2023/05/23 04:31:37;;;;;;;15.23;10.75;;;;;;;18.67;59.29;100265.66;10384908;28;20042;-64
2023/05/23 04:36:39;;;;;;;16.80;11.80;;;;;;;18.54;59.13;100279.47;10391270;28;20091;-66
2023/05/23 04:41:41;;;;;;;18.58;13.25;;;;;;;18.30;59.09;100276.63;10383589;28;20045;-65
2023/05/23 04:46:44;;;;;;;16.27;11.45;;;;;;;18.47;58.52;100295.06;10381167;28;20141;-65
2023/05/23 04:51:45;;;;;;;19.13;13.80;;;;;;;18.69;57.85;100284.50;10386785;28;20033;-65
2023/05/23 04:56:47;;;;;;;19.33;14.30;;;;;;;18.77;57.35;100289.63;10380623;28;20489;-65
2023/05/23 05:01:48;;;;;;;19.50;13.90;;;;;;;18.92;56.90;100291.97;10386455;28;20076;-65
2023/05/23 05:06:51;;;;;;;17.65;13.85;;;;;;;18.99;56.48;100296.22;10381908;28;20045;-65
2023/05/23 05:11:52;;;;;;;20.23;15.35;;;;;;;19.06;56.34;100306.22;10386194;28;20046;-64
2023/05/23 05:16:56;;;;;;;17.60;13.90;;;;;;;19.10;56.04;100302.78;10383658;28;20042;-66
2023/05/23 05:21:58;;;;;;;15.85;12.30;;;;;;;19.02;56.14;100311.28;10381020;28;20038;-64
2023/05/23 05:27:00;;;;;;;14.40;11.73;;;;;;;18.62;56.88;100319.97;10383490;28;20099;-65
2023/05/23 05:32:02;;;;;;;15.27;11.38;;;;;;;18.74;56.40;100317.31;10381603;28;20057;-64
2023/05/23 05:37:03;;;;;;;13.32;11.23;;;;;;;18.79;56.25;100314.72;10377521;28;20377;-63
2023/05/23 05:42:05;;;;;;;11.10;8.52;;;;;;;18.80;56.05;100327.34;10377501;28;20053;-65
2023/05/23 05:47:06;;;;;;;11.50;8.77;;;;;;;18.78;56.23;100337.59;10376813;28;20054;-67
2023/05/23 05:52:08;;;;;;;11.50;10.25;;;;;;;19.01;55.60;100351.31;10378924;28;20048;-63
2023/05/23 05:57:09;;;;;;;9.57;8.35;;;;;;;19.01;55.62;100354.03;10382630;28;20056;-64
2023/05/23 06:02:11;;;;;;;13.45;8.52;;;;;;;19.04;55.64;100347.31;10378420;28;20060;-65
2023/05/23 06:07:12;;;;;;;9.98;8.45;;;;;;;18.83;56.16;100354.91;10376523;28;20042;-66
2023/05/23 06:12:14;;;;;;;10.30;8.82;;;;;;;18.92;56.02;100358.16;10379509;28;20061;-68
2023/05/23 06:17:15;;;;;;;15.40;9.27;;;;;;;19.22;55.44;100349.13;10381014;28;20049;-69
2023/05/23 06:22:17;;;;;;;10.45;8.30;;;;;;;19.43;55.21;100361.38;10372310;28;20061;-68
2023/05/23 06:27:18;;;;;;;10.45;8.60;;;;;;;19.51;55.15;100363.78;10372438;28;20052;-67
2023/05/23 06:32:20;;;;;;;8.80;7.28;;;;;;;19.35;55.23;100362.56;10374126;28;20120;-67
2023/05/23 06:37:21;;;;;;;10.05;6.70;;;;;;;19.44;54.89;100373.94;10378929;28;20400;-65
2023/05/23 06:42:23;;;;;;;8.02;6.63;;;;;;;19.52;55.05;100368.16;10376128;28;20497;-68
2023/05/23 06:47:24;;;;;;;10.27;7.28;;;;;;;19.67;54.84;100364.13;10382034;28;20493;-68
2023/05/23 06:52:26;;;;;;;10.23;7.05;;;;;;;19.66;54.86;100349.66;10372615;28;20149;-66
2023/05/23 06:57:27;;;;;;;5.75;4.97;;;;;;;19.50;55.03;100342.19;10371471;28;20413;-60
2023/05/23 07:02:28;;;;;;;8.15;4.60;;;;;;;19.54;55.30;100341.47;10375447;28;20041;-60
2023/05/23 07:07:30;;;;;;;8.18;5.22;;;;;;;20.04;54.39;100339.38;10376447;28;20148;-60
2023/05/23 07:12:32;;;;;;;4.88;3.03;;;;;;;20.25;53.47;100346.13;10379450;28;20049;-59
2023/05/23 07:17:35;;;;;;;3.60;2.75;;;;;;;20.10;53.80;100350.19;10382578;28;20042;-67
2023/05/23 07:22:36;;;;;;;5.45;3.13;;;;;;;20.09;53.88;100364.88;10385047;28;20068;-64
2023/05/23 07:27:38;;;;;;;4.75;3.20;;;;;;;20.45;53.57;100360.19;10381563;28;20182;-65
2023/05/23 07:32:40;;;;;;;3.35;3.05;;;;;;;20.35;53.52;100365.44;10377680;28;20096;-67
2023/05/23 07:37:42;;;;;;;4.68;3.60;;;;;;;20.49;53.39;100374.19;10370655;28;20123;-66
2023/05/23 07:42:44;;;;;;;4.50;3.40;;;;;;;20.69;52.70;100365.63;10376743;28;20076;-66
2023/05/23 07:47:45;;;;;;;3.72;3.40;;;;;;;20.28;53.72;100373.78;10380100;28;20050;-64
2023/05/23 07:52:47;;;;;;;4.65;3.72;;;;;;;20.35;53.37;100382.66;10375117;28;20050;-67
2023/05/23 07:57:48;;;;;;;3.85;3.00;;;;;;;20.61;53.14;100377.75;10379910;28;20065;-66
2023/05/23 08:02:50;;;;;;;3.92;3.00;;;;;;;20.73;52.72;100373.09;10370985;28;20408;-65
2023/05/23 08:07:53;;;;;;;4.03;2.38;;;;;;;20.59;52.85;100378.00;10372674;28;20183;-66
2023/05/23 08:12:54;;;;;;;5.88;2.25;;;;;;;20.61;53.00;100375.03;10373748;28;20056;-66
2023/05/23 08:17:56;;;;;;;2.50;2.30;;;;;;;20.26;53.22;100386.00;10373008;28;20048;-66
2023/05/23 08:23:01;;;;;;;2.38;2.03;;;;;;;20.53;53.14;100380.84;10371489;28;20093;-67
2023/05/23 08:28:02;;;;;;;1.85;1.52;;;;;;;20.59;53.05;100380.72;10376472;28;20341;-65
2023/05/23 08:33:04;;;;;;;2.67;1.48;;;;;;;20.89;52.32;100389.78;10380633;28;20048;-67
2023/05/23 08:38:06;;;;;;;3.30;1.42;;;;;;;20.77;52.06;100401.59;10382405;28;20128;-66
2023/05/23 08:43:09;;;;;;;2.50;1.30;;;;;;;21.03;51.98;100390.31;10380083;28;20038;-67
2023/05/23 08:48:14;;;;;;;2.50;1.15;;;;;;;21.29;51.20;100391.66;10383782;28;20053;-65
2023/05/23 08:53:19;;;;;;;2.08;1.88;;;;;;;21.22;50.79;100399.16;10383256;28;20061;-64
2023/05/23 08:58:21;;;;;;;3.42;1.73;;;;;;;21.09;51.13;100401.13;10389907;28;20070;-65
2023/05/23 09:03:25;;;;;;;1.45;1.35;;;;;;;21.23;51.17;100407.13;10381239;28;20551;-67
2023/05/23 09:08:27;;;;;;;4.47;0.80;;;;;;;21.05;51.36;100402.69;10387023;28;20037;-67
2023/05/23 09:13:30;;;;;;;2.33;1.52;;;;;;;21.09;51.15;100405.75;10369336;28;20044;-67
2023/05/23 09:18:39;;;;;;;2.83;1.58;;;;;;;21.02;51.46;100416.84;10387515;28;20047;-67
2023/05/23 09:23:41;;;;;;;2.17;1.02;;;;;;;20.80;51.68;100412.03;10387695;28;20038;-67
2023/05/23 09:28:43;;;;;;;1.70;1.45;;;;;;;20.47;51.97;100403.66;10384075;28;20136;-66
2023/05/23 09:33:47;;;;;;;3.60;1.80;;;;;;;20.62;52.25;100406.75;10382345;28;20041;-66
2023/05/23 09:38:48;;;;;;;4.75;1.55;;;;;;;20.84;51.19;100403.38;10394092;28;20060;-65
2023/05/23 09:43:53;;;;;;;2.03;1.60;;;;;;;21.19;51.29;100404.03;10383204;28;20053;-67
2023/05/23 09:48:55;;;;;;;1.67;1.13;;;;;;;21.50;50.06;100410.06;10387811;28;20489;-65
2023/05/23 09:53:57;;;;;;;1.52;1.30;;;;;;;21.62;49.82;100403.72;10376161;28;20053;-68
2023/05/23 09:59:00;;;;;;;1.50;1.15;;;;;;;21.78;49.49;100411.94;10379993;28;20453;-67
2023/05/23 10:04:03;;;;;;;2.20;1.17;;;;;;;21.59;49.72;100416.81;10376947;28;20048;-65
2023/05/23 10:09:07;;;;;;;1.00;0.90;;;;;;;21.63;49.36;100421.81;10376777;28;20452;-62
2023/05/23 10:14:09;;;;;;;1.52;1.17;;;;;;;21.90;49.21;100422.81;10377449;28;20510;-62
2023/05/23 10:19:25;;;;;;;1.45;1.08;;;;;;;21.78;48.99;100435.72;10379409;28;20103;-62
2023/05/23 10:24:26;;;;;;;1.42;1.33;;;;;;;22.26;48.58;100431.59;10383101;28;20058;-62
2023/05/23 10:29:29;;;;;;;1.50;1.13;;;;;;;22.56;47.33;100433.91;10379489;28;20155;-62
2023/05/23 10:34:46;;;;;;;0.93;0.80;;;;;;;22.72;47.02;100429.47;10376017;28;20484;-62
2023/05/23 10:40:00;;;;;;;4.47;1.38;;;;;;;22.26;48.42;100430.75;10380964;28;20048;-62
2023/05/23 10:45:21;;;;;;;2.17;1.73;;;;;;;21.66;49.33;100438.53;10380907;28;20052;-62
2023/05/23 10:50:34;;;;;;;3.80;1.70;;;;;;;21.44;49.68;100446.63;10379911;28;20042;-63
2023/05/23 10:55:36;;;;;;;2.15;1.67;;;;;;;21.54;49.58;100448.72;10380874;28;20058;-61
2023/05/23 11:00:37;;;;;;;4.10;1.48;;;;;;;21.57;49.93;100457.25;10381215;28;20080;-63
2023/05/23 11:05:51;;;;;;;1.25;1.15;;;;;;;21.50;49.64;100466.69;10377781;28;20500;-62
2023/05/23 11:10:59;;;;;;;1.65;1.08;;;;;;;21.59;50.07;100454.28;10379198;28;20038;-61
2023/05/23 11:16:25;;;;;;;4.35;1.23;;;;;;;21.91;49.31;100446.34;10382580;28;20057;-63
2023/05/23 11:21:28;;;;;;;1.95;1.00;;;;;;;22.05;49.03;100451.50;10382223;28;20042;-62
2023/05/23 11:26:30;;;;;;;1.92;1.27;;;;;;;21.96;49.03;100451.91;10377478;28;20148;-62
2023/05/23 11:31:36;;;;;;;2.90;1.20;;;;;;;22.02;49.22;100458.31;10373051;28;20041;-62
2023/05/23 11:36:39;;;;;;;2.47;0.83;;;;;;;22.13;48.62;100449.16;10378650;28;20053;-63
2023/05/23 11:41:42;;;;;;;2.55;0.80;;;;;;;22.55;48.29;100451.44;10374411;28;20484;-63
2023/05/23 11:46:58;;;;;;;0.98;0.57;;;;;;;22.74;47.59;100454.69;10376047;28;20500;-63
2023/05/23 11:52:01;;;;;;;1.25;0.52;;;;;;;22.90;47.03;100454.91;10397663;28;20794;-63
2023/05/23 11:57:03;;;;;;;0.52;0.38;;;;;;;23.34;45.81;100463.09;10379501;28;20049;-62
2023/05/23 12:02:06;;;;;;;0.40;0.30;;;;;;;23.95;44.18;100463.72;10376610;28;20073;-62
2023/05/23 12:07:07;;;;;;;0.22;0.22;;;;;;;24.11;43.17;100466.56;10386129;28;20128;-61
2023/05/23 12:12:09;;;;;;;0.30;0.20;;;;;;;23.90;43.16;100469.16;10384023;28;20038;-61
2023/05/23 12:17:12;;;;;;;0.40;0.20;;;;;;;23.52;43.20;100471.00;10384329;28;20388;-61
2023/05/23 12:22:14;;;;;;;1.23;0.30;;;;;;;23.43;43.37;100460.75;10380018;28;20080;-61
2023/05/23 12:27:17;;;;;;;0.38;0.20;;;;;;;24.09;42.43;100469.59;10386433;28;20055;-61
2023/05/23 12:32:18;;;;;;;1.17;0.30;;;;;;;24.19;42.28;100468.84;10378129;28;20131;-62
2023/05/23 12:37:20;;;;;;;0.40;0.35;;;;;;;23.67;43.25;100484.03;10381150;28;20435;-62
2023/05/23 12:42:22;;;;;;;1.25;0.50;;;;;;;23.99;42.92;100479.66;10379397;28;20060;-61
2023/05/23 12:47:23;;;;;;;0.50;0.50;;;;;;;23.92;42.69;100477.97;10377267;28;20426;-61
2023/05/23 12:52:25;;;;;;;2.00;0.40;;;;;;;24.40;42.22;100461.56;10386275;28;20042;-61
2023/05/23 12:57:26;;;;;;;0.60;0.38;;;;;;;24.15;42.83;100481.44;10381885;28;20041;-61
2023/05/23 13:02:28;;;;;;;0.90;0.40;;;;;;;23.75;43.00;100477.22;10384984;28;20057;-62
2023/05/23 13:07:29;;;;;;;0.68;0.50;;;;;;;23.71;42.75;100489.81;10387279;28;20073;-62
2023/05/23 13:12:31;;;;;;;0.85;0.40;;;;;;;23.52;42.91;100495.69;10378380;28;20037;-63
2023/05/23 13:17:33;;;;;;;1.20;0.90;;;;;;;23.43;42.83;100499.16;10385010;28;20041;-67
2023/05/23 13:22:34;;;;;;;1.73;0.90;;;;;;;23.14;43.22;100502.09;10369610;28;20046;-66
2023/05/23 13:27:36;;;;;;;2.50;1.45;;;;;;;23.00;43.54;100496.13;10372032;28;20053;-67
2023/05/23 13:32:37;;;;;;;1.45;0.80;;;;;;;23.36;43.25;100499.34;10380244;28;20045;-67
2023/05/23 13:37:39;;;;;;;1.23;1.13;;;;;;;23.67;42.54;100500.50;10378844;28;20045;-67
2023/05/23 13:42:41;;;;;;;1.95;1.23;;;;;;;24.07;41.04;100487.41;10379772;28;20503;-67
2023/05/23 13:47:43;;;;;;;2.35;1.08;;;;;;;23.74;41.17;100501.13;10373453;28;20500;-67
2023/05/23 13:52:44;;;;;;;3.53;1.10;;;;;;;23.75;41.02;100502.75;10376986;28;20060;-68
2023/05/23 13:57:49;;;;;;;4.00;1.75;;;;;;;23.74;40.65;100501.13;10382691;28;20399;-68
2023/05/23 14:02:51;;;;;;;2.97;1.55;;;;;;;23.72;41.00;100494.25;10380183;28;20115;-68
2023/05/23 14:07:52;;;;;;;3.97;1.38;;;;;;;23.66;40.51;100498.84;10375243;28;20041;-69
2023/05/23 14:12:54;;;;;;;3.70;2.08;;;;;;;23.39;41.00;100496.09;10377312;28;20045;-67
2023/05/23 14:17:56;;;;;;;3.28;1.85;;;;;;;23.01;41.97;100502.47;10377415;28;20050;-69
2023/05/23 14:22:57;;;;;;;3.58;2.40;;;;;;;23.25;41.57;100503.06;10379623;28;20045;-68
2023/05/23 14:27:59;;;;;;;4.40;2.15;;;;;;;23.33;41.31;100511.66;10377025;28;20041;-69
2023/05/23 14:33:00;;;;;;;3.33;2.45;;;;;;;23.81;40.69;100516.56;10393130;28;20095;-68
2023/05/23 14:38:02;;;;;;;2.95;2.08;;;;;;;24.55;39.37;100502.09;10383363;28;20425;-68
2023/05/23 14:43:04;;;;;;;4.93;2.75;;;;;;;24.84;38.22;100518.19;10383292;28;20049;-67
2023/05/23 14:48:05;;;;;;;3.65;1.70;;;;;;;24.44;38.57;100519.56;10386722;28;20084;-67
2023/05/23 14:53:07;;;;;;;2.38;1.92;;;;;;;24.62;38.50;100523.84;10384236;28;20037;-69
2023/05/23 14:58:08;;;;;;;2.65;1.85;;;;;;;24.08;39.25;100528.34;10384147;28;20053;-68
2023/05/23 15:03:10;;;;;;;4.15;2.05;;;;;;;24.07;39.51;100536.84;10385733;28;20056;-68
2023/05/23 15:08:11;;;;;;;2.15;1.92;;;;;;;23.74;39.68;100530.50;10380898;28;20042;-68
2023/05/23 15:13:13;;;;;;;3.22;1.92;;;;;;;22.91;40.53;100536.91;10374056;28;20618;-73
2023/05/23 15:18:14;;;;;;;3.30;2.05;;;;;;;22.64;41.14;100533.22;10374326;28;20065;-73
2023/05/23 15:23:36;;;;;;;4.55;2.40;;;;;;;22.44;41.97;100537.31;10382135;28;20081;-68
2023/05/23 15:28:37;;;;;;;2.25;2.00;;;;;;;22.24;42.39;100536.97;10394007;28;20077;-67
2023/05/23 15:33:39;;;;;;;2.63;0.93;;;;;;;21.91;42.39;100555.00;10399328;28;20057;-68
2023/05/23 15:38:40;;;;;;;1.40;1.10;;;;;;;21.82;42.80;100560.06;10392890;28;20041;-63
2023/05/23 15:43:42;;;;;;;2.42;1.10;;;;;;;21.49;42.77;100558.06;10397717;28;20043;-64
2023/05/23 15:48:43;;;;;;;1.95;1.55;;;;;;;21.56;42.78;100564.19;10412884;28;20083;-63
2023/05/23 15:53:44;;;;;;;3.20;1.48;;;;;;;21.99;42.27;100554.59;10414436;28;20058;-67
2023/05/23 15:59:01;;;;;;;3.50;1.35;;;;;;;22.22;41.96;100556.38;10414856;28;20042;-66
2023/05/23 16:04:02;;;;;;;1.80;1.05;;;;;;;22.57;41.05;100569.00;10403395;28;20494;-63
2023/05/23 16:09:04;;;;;;;2.78;1.50;;;;;;;22.70;40.33;100560.44;10399416;28;20397;-68
2023/05/23 16:14:06;;;;;;;2.72;1.48;;;;;;;22.68;39.71;100564.50;10397405;28;20045;-65
2023/05/23 16:19:07;;;;;;;1.58;1.00;;;;;;;22.76;39.50;100562.16;10381709;28;20038;-67
2023/05/23 16:24:08;;;;;;;3.53;0.82;;;;;;;23.10;38.44;100555.81;10390599;28;20077;-66
2023/05/23 16:29:11;;;;;;;2.53;1.00;;;;;;;23.14;37.85;100555.06;10390016;28;20258;-68
2023/05/23 16:34:12;;;;;;;2.35;0.85;;;;;;;23.34;37.61;100554.47;10399548;28;20076;-68
2023/05/23 16:39:14;;;;;;;1.90;0.88;;;;;;;23.81;36.52;100566.00;10400256;28;20627;-68
2023/05/23 16:44:16;;;;;;;4.30;0.80;;;;;;;23.91;36.33;100564.19;10395389;28;20050;-68
2023/05/23 16:49:17;;;;;;;2.65;0.65;;;;;;;23.95;35.71;100557.09;10405051;28;20041;-63
2023/05/23 16:54:19;;;;;;;0.98;0.60;;;;;;;23.91;36.10;100566.09;10407826;28;20060;-66
2023/05/23 16:59:20;;;;;;;3.10;0.88;;;;;;;23.92;35.88;100571.31;10404819;28;20049;-64
2023/05/23 17:04:22;;;;;;;2.25;1.10;;;;;;;24.18;34.97;100579.00;10408307;28;20045;-68
2023/05/23 17:09:23;;;;;;;4.38;1.10;;;;;;;24.05;34.35;100570.09;10404260;28;20037;-66
2023/05/23 17:14:25;;;;;;;4.95;1.70;;;;;;;23.56;34.73;100570.91;10396383;28;20050;-67
2023/05/23 17:19:26;;;;;;;4.25;1.27;;;;;;;23.35;34.92;100577.25;10398738;28;20045;-68
2023/05/23 17:24:28;;;;;;;2.83;1.30;;;;;;;23.22;34.88;100585.84;10376338;28;20057;-66
2023/05/23 17:29:29;;;;;;;4.60;0.90;;;;;;;22.86;35.02;100588.06;10392893;28;20085;-66
2023/05/23 17:34:30;;;;;;;4.47;1.10;;;;;;;22.37;34.94;100589.53;10387816;28;20065;-68
2023/05/23 17:39:32;;;;;;;3.20;1.20;;;;;;;22.09;35.68;100595.03;10382861;28;20042;-68
2023/05/23 17:44:33;;;;;;;4.18;1.13;;;;;;;21.67;36.95;100595.34;10388996;28;20045;-67
2023/05/23 17:49:37;;;;;;;1.85;0.80;;;;;;;21.66;36.96;100602.69;10400836;28;20110;-66
2023/05/23 17:54:39;;;;;;;3.17;0.90;;;;;;;21.11;38.13;100614.94;10392701;28;20073;-66
2023/05/23 17:59:40;;;;;;;3.65;1.13;;;;;;;21.05;38.12;100613.16;10394061;28;20496;-65
2023/05/23 18:04:42;;;;;;;5.13;1.20;;;;;;;20.74;39.15;100615.19;10394532;28;20101;-64
2023/05/23 18:09:45;;;;;;;5.32;1.30;;;;;;;20.43;39.63;100620.94;10403288;28;20042;-67
2023/05/23 18:14:47;;;;;;;2.97;0.90;;;;;;;20.15;39.71;100623.22;10402729;28;20046;-63
2023/05/23 18:19:48;;;;;;;4.80;1.30;;;;;;;19.83;40.22;100633.56;10406134;28;20135;-65
2023/05/23 18:24:49;;;;;;;3.83;1.10;;;;;;;19.58;40.43;100636.38;10402449;28;20061;-64
2023/05/23 18:29:51;;;;;;;4.28;0.93;;;;;;;19.41;41.07;100641.59;10408427;28;20134;-64
2023/05/23 18:34:52;;;;;;;2.25;1.00;;;;;;;19.31;41.34;100642.13;10421919;28;20068;-63
2023/05/23 18:39:56;;;;;;;3.38;1.58;;;;;;;19.08;41.58;100653.69;10415700;28;20045;-66
2023/05/23 18:44:58;;;;;;;4.28;1.30;;;;;;;18.77;42.04;100647.22;10402982;28;20053;-66
2023/05/23 18:50:00;;;;;;;5.30;1.10;;;;;;;18.57;42.42;100649.28;10655028;23;20113;-63
2023/05/23 18:55:02;;;;;;;6.65;1.23;;;;;;;18.48;42.55;100651.44;10319597;28;20064;-65
2023/05/23 19:00:04;;;;;;;5.07;1.10;;;;;;;18.34;42.73;100652.59;10310421;28;20046;-65
2023/05/23 19:05:06;;;;;;;2.70;1.00;;;;;;;18.26;43.16;100659.13;10336322;28;20057;-63
2023/05/23 19:10:07;;;;;;;7.30;1.60;;;;;;;18.18;43.04;100662.13;10312695;28;20084;-67
2023/05/23 19:15:09;;;;;;;7.80;1.27;;;;;;;18.06;43.55;100672.84;10321196;28;20054;-67
2023/05/23 19:20:12;;;;;;;5.05;0.90;;;;;;;18.03;43.46;100678.75;10314343;28;20045;-67
2023/05/23 19:25:14;;;;;;;4.13;1.20;;;;;;;17.80;43.83;100673.78;10310649;28;20046;-67
2023/05/23 19:30:15;;;;;;;4.15;1.13;;;;;;;17.64;44.23;100684.09;10301467;28;20053;-66
2023/05/23 19:35:17;;;;;;;3.33;1.00;;;;;;;17.61;44.53;100683.69;10301506;28;20034;-66
2023/05/23 19:40:20;;;;;;;8.88;1.23;;;;;;;17.47;44.53;100691.03;10288775;28;20057;-67
2023/05/23 19:45:22;;;;;;;8.15;1.10;;;;;;;17.31;45.06;100688.78;10309266;28;20043;-68
2023/05/23 19:50:23;;;;;;;3.67;1.85;;;;;;;17.22;45.25;100683.59;10299172;28;20394;-68
2023/05/23 19:55:25;;;;;;;4.55;1.25;;;;;;;17.14;45.43;100686.53;10303763;28;20342;-71
2023/05/23 20:00:26;;;;;;;4.68;1.10;;;;;;;16.93;45.75;100695.72;10300300;28;20054;-69
2023/05/23 20:05:28;;;;;;;6.60;1.00;;;;;;;16.78;45.83;100714.06;10292617;28;20046;-70
2023/05/23 20:10:29;;;;;;;6.57;1.23;;;;;;;16.75;45.71;100717.22;10300816;28;20038;-66
2023/05/23 20:15:31;;;;;;;5.45;1.30;;;;;;;16.68;45.77;100728.03;10301169;28;20050;-70
2023/05/23 20:20:40;;;;;;;7.18;1.75;;;;;;;16.61;46.00;100735.38;10298454;28;20042;-71
2023/05/23 20:25:43;;;;;;;5.47;1.05;;;;;;;16.49;46.19;100732.41;10299920;28;20062;-66
2023/05/23 20:30:44;;;;;;;7.30;1.52;;;;;;;16.36;46.34;100737.81;10309792;28;20034;-69
2023/05/23 20:35:48;;;;;;;5.88;1.73;;;;;;;16.39;46.20;100745.50;10305608;28;20039;-72
2023/05/23 20:40:50;;;;;;;10.18;1.90;;;;;;;16.36;46.05;100740.50;10308729;28;20054;-73
2023/05/23 20:45:53;;;;;;;7.70;1.52;;;;;;;16.26;46.01;100747.16;10305759;28;20537;-65
2023/05/23 20:50:56;;;;;;;6.90;1.33;;;;;;;16.23;45.84;100738.59;10311592;28;20057;-69
2023/05/23 20:55:57;;;;;;;6.40;0.82;;;;;;;16.16;45.81;100741.28;10305840;28;20054;-67
2023/05/23 21:00:59;;;;;;;8.23;1.30;;;;;;;16.15;46.07;100757.75;10305201;28;20043;-69
2023/05/23 21:06:00;;;;;;;5.63;1.20;;;;;;;16.06;46.40;100752.50;10313245;28;20046;-72
2023/05/23 21:11:01;;;;;;;8.43;1.73;;;;;;;16.02;46.35;100758.56;10308950;28;20042;-68
2023/05/23 21:16:04;;;;;;;9.50;2.42;;;;;;;16.02;46.40;100759.38;10306571;28;20075;-65
2023/05/23 21:21:06;;;;;;;6.03;1.77;;;;;;;15.98;46.49;100760.81;10309596;28;20042;-71
2023/05/23 21:26:07;;;;;;;9.75;1.90;;;;;;;15.85;46.82;100758.88;10298651;28;20070;-71
2023/05/23 21:31:08;;;;;;;12.27;3.22;;;;;;;15.79;46.77;100770.50;10302665;28;20088;-71
2023/05/23 21:36:10;;;;;;;10.50;2.35;;;;;;;15.69;47.00;100766.47;10313728;28;20580;-63
2023/05/23 21:41:11;;;;;;;12.02;1.70;;;;;;;15.56;47.45;100773.50;10317642;28;20112;-70
2023/05/23 21:46:13;;;;;;;8.85;1.85;;;;;;;15.34;47.74;100783.53;10310953;28;20046;-72
2023/05/23 21:51:14;;;;;;;6.57;1.48;;;;;;;15.26;47.96;100780.97;10312954;28;20050;-73
2023/05/23 21:56:16;;;;;;;6.03;1.52;;;;;;;15.17;48.21;100784.88;10304020;28;20072;-73
2023/05/23 22:01:17;;;;;;;9.60;1.98;;;;;;;15.13;48.31;100792.53;10304025;28;20047;-69
2023/05/23 22:06:19;;;;;;;9.32;1.42;;;;;;;15.05;48.37;100798.09;10304459;28;20133;-70
2023/05/23 22:11:20;;;;;;;8.45;1.50;;;;;;;15.04;48.53;100801.81;10300389;28;20160;-68
2023/05/23 22:16:22;;;;;;;6.90;1.45;;;;;;;14.95;48.74;100794.84;10302963;28;20050;-68
2023/05/23 22:21:24;;;;;;;6.15;1.70;;;;;;;14.75;49.42;100798.22;10303675;28;20054;-70
2023/05/23 22:26:26;;;;;;;8.82;1.70;;;;;;;14.75;49.20;100800.06;10296097;28;20049;-68
2023/05/23 22:31:27;;;;;;;8.60;1.13;;;;;;;14.71;49.46;100810.47;10304817;28;20343;-66
2023/05/23 22:36:32;;;;;;;10.00;1.58;;;;;;;14.63;49.50;100808.72;10303484;28;20050;-71
2023/05/23 22:41:34;;;;;;;8.63;1.08;;;;;;;14.60;49.46;100809.09;10301836;28;20043;-69
2023/05/23 22:46:38;;;;;;;8.68;2.22;;;;;;;14.43;50.14;100813.00;10301140;28;20039;-70
2023/05/23 22:51:40;;;;;;;11.77;2.10;;;;;;;14.32;50.40;100811.66;10304275;28;20058;-67
2023/05/23 22:56:42;;;;;;;5.25;1.15;;;;;;;14.19;50.66;100806.88;10305716;28;20055;-69
2023/05/23 23:01:43;;;;;;;5.60;1.70;;;;;;;14.14;50.95;100808.47;10297800;28;20663;-70